Market Lavington, United Kingdom
Current Conditions -  °F | °C
As of 1:50 PM on Friday 28 Nov 2014 (Local Time) from EGDM Reporting Station
Haze Haze  
Wind Chill: 52°   Ceiling: 800
Heat Index: 52°   Visibility: 4mi
Dew Point: 48°   Wind: 13mph
Humidity: 88%   Direction: 70°ENE
Pressure: 29.53"   Gusts: NA
Location:  51.29°N, 1.98°W
Report Text: EGDM 281350Z 07011KT 7000 HZ BKN008 11/09 Q1000 GRN TEMPO 9999 NSW GRN
Loading
Personal Weather Stations






























Interactive Weather Map New forecast layout! Learn more

10-Day Weather Forecast

Advertisements
Track Severe Weather on mobile